sensor_id;sensor_type;location;lat;lon;timestamp;P1;durP1;ratioP1;P2;durP2;ratioP2
49416;SDS011;35290;39.550;8.786;2022-10-16T00:00:37;6.95;;;4.35;;
49416;SDS011;35290;39.550;8.786;2022-10-16T00:03:04;6.07;;;4.45;;
49416;SDS011;35290;39.550;8.786;2022-10-16T00:05:30;8.65;;;4.72;;
49416;SDS011;35290;39.550;8.786;2022-10-16T00:07:56;7.53;;;5.00;;
49416;SDS011;35290;39.550;8.786;2022-10-16T00:10:22;8.52;;;4.68;;
49416;SDS011;35290;39.550;8.786;2022-10-16T00:12:48;9.23;;;4.80;;
49416;SDS011;35290;39.550;8.786;2022-10-16T00:15:13;7.25;;;4.97;;
49416;SDS011;35290;39.550;8.786;2022-10-16T00:17:39;10.48;;;4.40;;
49416;SDS011;35290;39.550;8.786;2022-10-16T00:20:04;10.05;;;4.90;;
49416;SDS011;35290;39.550;8.786;2022-10-16T00:22:30;8.90;;;4.50;;
49416;SDS011;35290;39.550;8.786;2022-10-16T00:24:56;8.93;;;5.00;;
49416;SDS011;35290;39.550;8.786;2022-10-16T00:27:22;6.85;;;5.00;;
49416;SDS011;35290;39.550;8.786;2022-10-16T00:29:51;9.40;;;5.13;;
49416;SDS011;35290;39.550;8.786;2022-10-16T00:32:20;9.05;;;5.13;;
49416;SDS011;35290;39.550;8.786;2022-10-16T00:34:46;8.65;;;4.60;;
49416;SDS011;35290;39.550;8.786;2022-10-16T00:37:11;9.52;;;4.28;;
49416;SDS011;35290;39.550;8.786;2022-10-16T00:39:37;14.32;;;5.10;;
49416;SDS011;35290;39.550;8.786;2022-10-16T00:42:03;7.85;;;4.38;;
49416;SDS011;35290;39.550;8.786;2022-10-16T00:50:20;7.63;;;4.15;;
49416;SDS011;35290;39.550;8.786;2022-10-16T00:52:50;6.75;;;3.47;;
49416;SDS011;35290;39.550;8.786;2022-10-16T00:55:16;5.22;;;3.80;;
49416;SDS011;35290;39.550;8.786;2022-10-16T00:57:42;6.00;;;3.28;;
49416;SDS011;35290;39.550;8.786;2022-10-16T01:00:09;5.65;;;3.67;;
49416;SDS011;35290;39.550;8.786;2022-10-16T01:02:36;8.30;;;3.60;;
49416;SDS011;35290;39.550;8.786;2022-10-16T01:05:02;6.20;;;3.33;;
49416;SDS011;35290;39.550;8.786;2022-10-16T01:07:36;4.63;;;3.50;;
49416;SDS011;35290;39.550;8.786;2022-10-16T01:18:17;7.57;;;3.72;;
49416;SDS011;35290;39.550;8.786;2022-10-16T01:26:02;6.95;;;4.18;;
49416;SDS011;35290;39.550;8.786;2022-10-16T01:31:32;6.60;;;4.20;;
49416;SDS011;35290;39.550;8.786;2022-10-16T01:34:02;9.98;;;4.40;;
49416;SDS011;35290;39.550;8.786;2022-10-16T01:36:44;7.20;;;4.50;;
49416;SDS011;35290;39.550;8.786;2022-10-16T01:39:13;7.45;;;4.30;;
49416;SDS011;35290;39.550;8.786;2022-10-16T01:41:40;6.90;;;4.05;;
49416;SDS011;35290;39.550;8.786;2022-10-16T01:44:16;6.25;;;4.78;;
49416;SDS011;35290;39.550;8.786;2022-10-16T01:46:46;13.18;;;4.93;;
49416;SDS011;35290;39.550;8.786;2022-10-16T01:49:13;9.45;;;4.65;;
49416;SDS011;35290;39.550;8.786;2022-10-16T01:51:39;8.57;;;4.43;;
49416;SDS011;35290;39.550;8.786;2022-10-16T01:54:07;5.70;;;4.40;;
49416;SDS011;35290;39.550;8.786;2022-10-16T01:56:34;10.30;;;4.57;;
49416;SDS011;35290;39.550;8.786;2022-10-16T01:59:13;6.65;;;4.13;;
49416;SDS011;35290;39.550;8.786;2022-10-16T02:01:42;5.47;;;3.60;;
49416;SDS011;35290;39.550;8.786;2022-10-16T02:04:14;8.10;;;3.33;;
49416;SDS011;35290;39.550;8.786;2022-10-16T02:06:42;6.47;;;3.28;;
49416;SDS011;35290;39.550;8.786;2022-10-16T02:09:08;6.18;;;3.35;;
49416;SDS011;35290;39.550;8.786;2022-10-16T02:11:34;7.20;;;3.08;;
49416;SDS011;35290;39.550;8.786;2022-10-16T02:14:04;5.63;;;2.97;;
49416;SDS011;35290;39.550;8.786;2022-10-16T02:16:48;5.43;;;3.22;;
49416;SDS011;35290;39.550;8.786;2022-10-16T02:19:14;5.72;;;2.85;;
49416;SDS011;35290;39.550;8.786;2022-10-16T02:26:51;6.28;;;2.90;;
49416;SDS011;35290;39.550;8.786;2022-10-16T02:29:20;6.95;;;2.97;;
49416;SDS011;35290;39.550;8.786;2022-10-16T02:31:49;5.72;;;2.83;;
49416;SDS011;35290;39.550;8.786;2022-10-16T02:34:16;7.22;;;2.72;;
49416;SDS011;35290;39.550;8.786;2022-10-16T02:36:42;5.63;;;2.95;;
49416;SDS011;35290;39.550;8.786;2022-10-16T02:39:08;5.07;;;3.13;;
49416;SDS011;35290;39.550;8.786;2022-10-16T02:41:33;5.75;;;3.20;;
49416;SDS011;35290;39.550;8.786;2022-10-16T02:43:59;6.10;;;3.00;;
49416;SDS011;35290;39.550;8.786;2022-10-16T02:46:24;3.58;;;2.90;;
49416;SDS011;35290;39.550;8.786;2022-10-16T02:48:50;7.10;;;2.70;;
49416;SDS011;35290;39.550;8.786;2022-10-16T02:51:15;4.28;;;2.60;;
49416;SDS011;35290;39.550;8.786;2022-10-16T02:53:41;3.05;;;2.60;;
49416;SDS011;35290;39.550;8.786;2022-10-16T02:56:06;7.20;;;2.95;;
49416;SDS011;35290;39.550;8.786;2022-10-16T02:58:32;3.55;;;2.92;;
49416;SDS011;35290;39.550;8.786;2022-10-16T03:00:58;3.22;;;2.88;;
49416;SDS011;35290;39.550;8.786;2022-10-16T03:03:23;3.75;;;2.95;;
49416;SDS011;35290;39.550;8.786;2022-10-16T03:05:50;4.63;;;3.20;;
49416;SDS011;35290;39.550;8.786;2022-10-16T03:08:15;6.07;;;3.00;;
49416;SDS011;35290;39.550;8.786;2022-10-16T03:10:41;6.57;;;3.05;;
49416;SDS011;35290;39.550;8.786;2022-10-16T03:13:06;3.40;;;3.10;;
49416;SDS011;35290;39.550;8.786;2022-10-16T03:15:32;4.25;;;3.75;;
49416;SDS011;35290;39.550;8.786;2022-10-16T03:17:58;5.28;;;3.90;;
49416;SDS011;35290;39.550;8.786;2022-10-16T03:20:24;6.25;;;3.95;;
49416;SDS011;35290;39.550;8.786;2022-10-16T03:22:49;4.40;;;4.00;;
49416;SDS011;35290;39.550;8.786;2022-10-16T03:25:15;4.88;;;4.38;;
49416;SDS011;35290;39.550;8.786;2022-10-16T03:27:40;4.97;;;3.83;;
49416;SDS011;35290;39.550;8.786;2022-10-16T03:30:06;4.85;;;4.35;;
49416;SDS011;35290;39.550;8.786;2022-10-16T03:32:32;4.75;;;4.30;;
49416;SDS011;35290;39.550;8.786;2022-10-16T03:34:57;5.35;;;4.85;;
49416;SDS011;35290;39.550;8.786;2022-10-16T03:37:23;5.55;;;4.70;;
49416;SDS011;35290;39.550;8.786;2022-10-16T03:39:49;4.60;;;4.20;;
49416;SDS011;35290;39.550;8.786;2022-10-16T03:42:14;4.68;;;4.18;;
49416;SDS011;35290;39.550;8.786;2022-10-16T03:44:40;4.00;;;3.70;;
49416;SDS011;35290;39.550;8.786;2022-10-16T03:47:05;3.80;;;3.40;;
49416;SDS011;35290;39.550;8.786;2022-10-16T03:49:32;3.10;;;2.90;;
49416;SDS011;35290;39.550;8.786;2022-10-16T03:51:58;2.90;;;2.70;;
49416;SDS011;35290;39.550;8.786;2022-10-16T03:54:24;2.55;;;2.35;;
49416;SDS011;35290;39.550;8.786;2022-10-16T03:56:49;3.50;;;2.50;;
49416;SDS011;35290;39.550;8.786;2022-10-16T03:59:21;2.60;;;2.40;;
49416;SDS011;35290;39.550;8.786;2022-10-16T04:01:46;3.10;;;2.10;;
49416;SDS011;35290;39.550;8.786;2022-10-16T04:04:12;3.72;;;2.05;;
49416;SDS011;35290;39.550;8.786;2022-10-16T04:06:37;2.38;;;2.17;;
49416;SDS011;35290;39.550;8.786;2022-10-16T04:09:03;4.15;;;2.17;;
49416;SDS011;35290;39.550;8.786;2022-10-16T04:11:28;4.07;;;2.40;;
49416;SDS011;35290;39.550;8.786;2022-10-16T04:13:54;2.83;;;2.08;;
49416;SDS011;35290;39.550;8.786;2022-10-16T04:16:20;3.22;;;2.55;;
49416;SDS011;35290;39.550;8.786;2022-10-16T04:18:45;3.30;;;2.80;;
49416;SDS011;35290;39.550;8.786;2022-10-16T04:21:11;4.63;;;3.05;;
49416;SDS011;35290;39.550;8.786;2022-10-16T04:23:36;5.15;;;3.20;;
49416;SDS011;35290;39.550;8.786;2022-10-16T04:26:02;4.97;;;3.20;;
49416;SDS011;35290;39.550;8.786;2022-10-16T04:28:28;4.32;;;3.33;;
49416;SDS011;35290;39.550;8.786;2022-10-16T04:30:53;7.88;;;3.60;;
49416;SDS011;35290;39.550;8.786;2022-10-16T04:33:19;5.63;;;3.38;;
49416;SDS011;35290;39.550;8.786;2022-10-16T04:35:44;7.35;;;3.13;;
49416;SDS011;35290;39.550;8.786;2022-10-16T04:38:10;7.32;;;3.28;;
49416;SDS011;35290;39.550;8.786;2022-10-16T04:40:35;4.75;;;3.20;;
49416;SDS011;35290;39.550;8.786;2022-10-16T04:43:02;5.55;;;3.47;;
49416;SDS011;35290;39.550;8.786;2022-10-16T04:45:28;4.50;;;3.15;;
49416;SDS011;35290;39.550;8.786;2022-10-16T04:47:57;3.78;;;2.80;;
49416;SDS011;35290;39.550;8.786;2022-10-16T04:50:24;5.57;;;3.30;;
49416;SDS011;35290;39.550;8.786;2022-10-16T04:52:49;5.32;;;3.17;;
49416;SDS011;35290;39.550;8.786;2022-10-16T04:55:14;5.13;;;2.90;;
49416;SDS011;35290;39.550;8.786;2022-10-16T04:57:40;7.65;;;3.28;;
49416;SDS011;35290;39.550;8.786;2022-10-16T05:00:06;5.72;;;3.08;;
49416;SDS011;35290;39.550;8.786;2022-10-16T05:02:33;3.55;;;2.88;;
49416;SDS011;35290;39.550;8.786;2022-10-16T05:04:58;4.53;;;2.85;;
49416;SDS011;35290;39.550;8.786;2022-10-16T05:07:24;4.88;;;2.88;;
49416;SDS011;35290;39.550;8.786;2022-10-16T05:09:49;5.90;;;3.15;;
49416;SDS011;35290;39.550;8.786;2022-10-16T05:12:14;6.38;;;3.00;;
49416;SDS011;35290;39.550;8.786;2022-10-16T05:14:40;3.95;;;2.70;;
49416;SDS011;35290;39.550;8.786;2022-10-16T05:17:05;5.18;;;2.90;;
49416;SDS011;35290;39.550;8.786;2022-10-16T05:19:31;7.65;;;3.05;;
49416;SDS011;35290;39.550;8.786;2022-10-16T05:21:56;6.90;;;3.25;;
49416;SDS011;35290;39.550;8.786;2022-10-16T05:24:22;3.97;;;2.70;;
49416;SDS011;35290;39.550;8.786;2022-10-16T05:26:47;5.90;;;3.20;;
49416;SDS011;35290;39.550;8.786;2022-10-16T05:29:13;6.60;;;3.40;;
49416;SDS011;35290;39.550;8.786;2022-10-16T05:31:39;4.65;;;3.30;;
49416;SDS011;35290;39.550;8.786;2022-10-16T05:34:04;6.72;;;3.40;;
49416;SDS011;35290;39.550;8.786;2022-10-16T05:36:30;7.57;;;3.58;;
49416;SDS011;35290;39.550;8.786;2022-10-16T05:38:55;8.35;;;3.38;;
49416;SDS011;35290;39.550;8.786;2022-10-16T05:41:21;5.30;;;3.53;;
49416;SDS011;35290;39.550;8.786;2022-10-16T05:43:48;8.70;;;3.80;;
49416;SDS011;35290;39.550;8.786;2022-10-16T05:46:14;6.03;;;3.35;;
49416;SDS011;35290;39.550;8.786;2022-10-16T05:48:40;10.80;;;4.70;;
49416;SDS011;35290;39.550;8.786;2022-10-16T05:51:06;8.88;;;5.90;;
49416;SDS011;35290;39.550;8.786;2022-10-16T05:53:33;11.68;;;6.85;;
49416;SDS011;35290;39.550;8.786;2022-10-16T05:56:00;14.30;;;7.97;;
49416;SDS011;35290;39.550;8.786;2022-10-16T05:58:35;15.05;;;8.00;;
49416;SDS011;35290;39.550;8.786;2022-10-16T06:01:03;11.30;;;6.25;;
49416;SDS011;35290;39.550;8.786;2022-10-16T06:03:30;13.05;;;5.88;;
49416;SDS011;35290;39.550;8.786;2022-10-16T06:05:55;14.38;;;4.70;;
49416;SDS011;35290;39.550;8.786;2022-10-16T06:08:21;6.13;;;4.80;;
49416;SDS011;35290;39.550;8.786;2022-10-16T06:10:47;13.07;;;5.30;;
49416;SDS011;35290;39.550;8.786;2022-10-16T06:13:13;9.43;;;4.75;;
49416;SDS011;35290;39.550;8.786;2022-10-16T06:15:39;9.43;;;4.28;;
49416;SDS011;35290;39.550;8.786;2022-10-16T06:18:08;7.88;;;4.47;;
49416;SDS011;35290;39.550;8.786;2022-10-16T06:20:34;7.07;;;4.00;;
49416;SDS011;35290;39.550;8.786;2022-10-16T06:23:00;8.60;;;3.45;;
49416;SDS011;35290;39.550;8.786;2022-10-16T06:25:29;8.20;;;3.17;;
49416;SDS011;35290;39.550;8.786;2022-10-16T06:27:55;7.10;;;3.58;;
49416;SDS011;35290;39.550;8.786;2022-10-16T06:30:20;11.10;;;3.10;;
49416;SDS011;35290;39.550;8.786;2022-10-16T06:32:45;6.82;;;3.70;;
49416;SDS011;35290;39.550;8.786;2022-10-16T06:35:11;6.85;;;3.65;;
49416;SDS011;35290;39.550;8.786;2022-10-16T06:37:36;5.50;;;3.42;;
49416;SDS011;35290;39.550;8.786;2022-10-16T06:40:02;7.30;;;3.55;;
49416;SDS011;35290;39.550;8.786;2022-10-16T06:42:29;5.03;;;2.80;;
49416;SDS011;35290;39.550;8.786;2022-10-16T06:44:54;5.03;;;3.00;;
49416;SDS011;35290;39.550;8.786;2022-10-16T06:47:20;3.45;;;2.55;;
49416;SDS011;35290;39.550;8.786;2022-10-16T06:49:45;4.63;;;2.75;;
49416;SDS011;35290;39.550;8.786;2022-10-16T06:52:11;5.05;;;2.55;;
49416;SDS011;35290;39.550;8.786;2022-10-16T06:54:36;8.55;;;2.85;;
49416;SDS011;35290;39.550;8.786;2022-10-16T06:57:02;6.50;;;2.83;;
49416;SDS011;35290;39.550;8.786;2022-10-16T06:59:28;4.63;;;2.88;;
49416;SDS011;35290;39.550;8.786;2022-10-16T07:01:53;7.80;;;2.83;;
49416;SDS011;35290;39.550;8.786;2022-10-16T07:04:18;7.03;;;2.47;;
49416;SDS011;35290;39.550;8.786;2022-10-16T07:06:44;3.70;;;2.60;;
49416;SDS011;35290;39.550;8.786;2022-10-16T07:09:10;3.55;;;2.90;;
49416;SDS011;35290;39.550;8.786;2022-10-16T07:11:36;5.45;;;2.90;;
49416;SDS011;35290;39.550;8.786;2022-10-16T07:14:03;6.70;;;3.22;;
49416;SDS011;35290;39.550;8.786;2022-10-16T07:16:30;5.85;;;2.70;;
49416;SDS011;35290;39.550;8.786;2022-10-16T07:18:57;5.93;;;3.08;;
49416;SDS011;35290;39.550;8.786;2022-10-16T07:21:24;5.47;;;2.40;;
49416;SDS011;35290;39.550;8.786;2022-10-16T07:23:51;6.65;;;2.80;;
49416;SDS011;35290;39.550;8.786;2022-10-16T07:26:17;7.72;;;2.80;;
49416;SDS011;35290;39.550;8.786;2022-10-16T07:28:43;7.93;;;2.80;;
49416;SDS011;35290;39.550;8.786;2022-10-16T07:31:10;7.00;;;2.88;;
49416;SDS011;35290;39.550;8.786;2022-10-16T07:33:37;7.07;;;2.67;;
49416;SDS011;35290;39.550;8.786;2022-10-16T07:36:04;4.35;;;2.58;;
49416;SDS011;35290;39.550;8.786;2022-10-16T07:38:30;5.05;;;2.80;;
49416;SDS011;35290;39.550;8.786;2022-10-16T07:40:57;8.00;;;2.75;;
49416;SDS011;35290;39.550;8.786;2022-10-16T07:43:27;8.30;;;2.72;;
49416;SDS011;35290;39.550;8.786;2022-10-16T07:45:52;9.57;;;3.65;;
49416;SDS011;35290;39.550;8.786;2022-10-16T07:48:18;9.25;;;4.15;;
49416;SDS011;35290;39.550;8.786;2022-10-16T07:50:44;9.05;;;4.80;;
49416;SDS011;35290;39.550;8.786;2022-10-16T07:53:10;12.27;;;5.20;;
49416;SDS011;35290;39.550;8.786;2022-10-16T07:55:36;14.45;;;7.40;;
49416;SDS011;35290;39.550;8.786;2022-10-16T07:58:02;12.55;;;7.60;;
49416;SDS011;35290;39.550;8.786;2022-10-16T08:00:27;19.88;;;11.32;;
49416;SDS011;35290;39.550;8.786;2022-10-16T08:02:53;22.45;;;12.30;;
49416;SDS011;35290;39.550;8.786;2022-10-16T08:05:18;18.00;;;11.70;;
49416;SDS011;35290;39.550;8.786;2022-10-16T08:07:48;18.40;;;9.77;;
49416;SDS011;35290;39.550;8.786;2022-10-16T08:10:18;13.45;;;7.68;;
49416;SDS011;35290;39.550;8.786;2022-10-16T08:12:45;14.65;;;5.75;;
49416;SDS011;35290;39.550;8.786;2022-10-16T08:15:10;11.75;;;5.00;;
49416;SDS011;35290;39.550;8.786;2022-10-16T08:17:36;12.02;;;5.20;;
49416;SDS011;35290;39.550;8.786;2022-10-16T08:20:02;10.90;;;5.70;;
49416;SDS011;35290;39.550;8.786;2022-10-16T08:22:27;15.77;;;7.30;;
49416;SDS011;35290;39.550;8.786;2022-10-16T08:24:53;16.48;;;7.03;;
49416;SDS011;35290;39.550;8.786;2022-10-16T08:27:19;12.93;;;6.50;;
49416;SDS011;35290;39.550;8.786;2022-10-16T08:29:50;12.48;;;5.47;;
49416;SDS011;35290;39.550;8.786;2022-10-16T08:32:16;10.40;;;5.35;;
49416;SDS011;35290;39.550;8.786;2022-10-16T08:34:41;6.93;;;4.25;;
49416;SDS011;35290;39.550;8.786;2022-10-16T08:37:07;5.28;;;3.20;;
49416;SDS011;35290;39.550;8.786;2022-10-16T08:39:36;10.73;;;3.30;;
49416;SDS011;35290;39.550;8.786;2022-10-16T08:42:15;5.32;;;3.08;;
49416;SDS011;35290;39.550;8.786;2022-10-16T08:44:57;8.02;;;2.97;;
49416;SDS011;35290;39.550;8.786;2022-10-16T08:50:27;10.45;;;3.03;;
49416;SDS011;35290;39.550;8.786;2022-10-16T08:52:53;8.90;;;3.00;;
49416;SDS011;35290;39.550;8.786;2022-10-16T08:55:42;13.88;;;3.60;;
49416;SDS011;35290;39.550;8.786;2022-10-16T08:58:12;5.53;;;3.20;;
49416;SDS011;35290;39.550;8.786;2022-10-16T09:00:39;8.40;;;3.45;;
49416;SDS011;35290;39.550;8.786;2022-10-16T09:03:10;8.13;;;3.05;;
49416;SDS011;35290;39.550;8.786;2022-10-16T09:14:40;9.30;;;3.47;;
49416;SDS011;35290;39.550;8.786;2022-10-16T09:24:00;5.63;;;3.80;;
49416;SDS011;35290;39.550;8.786;2022-10-16T09:26:35;8.90;;;3.83;;
49416;SDS011;35290;39.550;8.786;2022-10-16T09:29:00;8.65;;;3.67;;
49416;SDS011;35290;39.550;8.786;2022-10-16T09:31:26;8.80;;;3.80;;
49416;SDS011;35290;39.550;8.786;2022-10-16T09:33:53;8.65;;;3.97;;
49416;SDS011;35290;39.550;8.786;2022-10-16T09:36:20;9.63;;;3.80;;
49416;SDS011;35290;39.550;8.786;2022-10-16T09:41:30;8.55;;;4.55;;
49416;SDS011;35290;39.550;8.786;2022-10-16T09:43:59;13.13;;;4.13;;
49416;SDS011;35290;39.550;8.786;2022-10-16T09:46:27;12.73;;;4.40;;
49416;SDS011;35290;39.550;8.786;2022-10-16T09:48:58;6.85;;;3.65;;
49416;SDS011;35290;39.550;8.786;2022-10-16T09:54:19;10.07;;;4.60;;
49416;SDS011;35290;39.550;8.786;2022-10-16T09:56:44;10.98;;;4.65;;
49416;SDS011;35290;39.550;8.786;2022-10-16T09:59:15;9.45;;;4.55;;
49416;SDS011;35290;39.550;8.786;2022-10-16T10:01:48;6.88;;;4.15;;
49416;SDS011;35290;39.550;8.786;2022-10-16T10:04:16;9.10;;;4.22;;
49416;SDS011;35290;39.550;8.786;2022-10-16T10:06:45;8.85;;;4.18;;
49416;SDS011;35290;39.550;8.786;2022-10-16T10:14:49;6.88;;;3.53;;
49416;SDS011;35290;39.550;8.786;2022-10-16T10:17:21;7.72;;;3.55;;
49416;SDS011;35290;39.550;8.786;2022-10-16T10:19:52;6.32;;;3.03;;
49416;SDS011;35290;39.550;8.786;2022-10-16T10:22:27;8.52;;;3.40;;
49416;SDS011;35290;39.550;8.786;2022-10-16T10:27:37;8.00;;;3.30;;
49416;SDS011;35290;39.550;8.786;2022-10-16T10:36:05;6.05;;;2.50;;
49416;SDS011;35290;39.550;8.786;2022-10-16T10:38:48;10.43;;;2.13;;
49416;SDS011;35290;39.550;8.786;2022-10-16T10:44:53;4.43;;;1.60;;
49416;SDS011;35290;39.550;8.786;2022-10-16T10:53:04;4.45;;;1.30;;
49416;SDS011;35290;39.550;8.786;2022-10-16T10:55:51;4.82;;;1.20;;
49416;SDS011;35290;39.550;8.786;2022-10-16T11:01:02;4.43;;;1.00;;
49416;SDS011;35290;39.550;8.786;2022-10-16T11:06:20;8.38;;;1.35;;
49416;SDS011;35290;39.550;8.786;2022-10-16T11:09:02;7.25;;;1.30;;
49416;SDS011;35290;39.550;8.786;2022-10-16T11:11:36;3.53;;;1.30;;
49416;SDS011;35290;39.550;8.786;2022-10-16T11:14:06;7.57;;;1.50;;
49416;SDS011;35290;39.550;8.786;2022-10-16T11:16:58;2.90;;;1.10;;
49416;SDS011;35290;39.550;8.786;2022-10-16T11:19:30;4.55;;;1.20;;
49416;SDS011;35290;39.550;8.786;2022-10-16T11:22:18;2.90;;;1.17;;
49416;SDS011;35290;39.550;8.786;2022-10-16T11:27:26;6.38;;;1.40;;
49416;SDS011;35290;39.550;8.786;2022-10-16T11:30:02;4.80;;;1.00;;
49416;SDS011;35290;39.550;8.786;2022-10-16T11:32:36;1.77;;;0.80;;
49416;SDS011;35290;39.550;8.786;2022-10-16T11:35:17;4.30;;;1.00;;
49416;SDS011;35290;39.550;8.786;2022-10-16T11:37:49;4.85;;;1.02;;
49416;SDS011;35290;39.550;8.786;2022-10-16T11:40:23;6.00;;;1.23;;
49416;SDS011;35290;39.550;8.786;2022-10-16T11:43:02;4.72;;;1.40;;
49416;SDS011;35290;39.550;8.786;2022-10-16T11:45:39;5.93;;;1.10;;
49416;SDS011;35290;39.550;8.786;2022-10-16T11:54:32;2.92;;;1.02;;
49416;SDS011;35290;39.550;8.786;2022-10-16T11:56:43;5.18;;;1.00;;
49416;SDS011;35290;39.550;8.786;2022-10-16T12:02:26;4.55;;;1.15;;
49416;SDS011;35290;39.550;8.786;2022-10-16T12:07:39;3.10;;;1.10;;
49416;SDS011;35290;39.550;8.786;2022-10-16T12:10:23;2.17;;;0.90;;
49416;SDS011;35290;39.550;8.786;2022-10-16T12:12:51;4.47;;;1.17;;
49416;SDS011;35290;39.550;8.786;2022-10-16T12:17:49;2.83;;;0.95;;
49416;SDS011;35290;39.550;8.786;2022-10-16T12:20:23;4.55;;;1.25;;
49416;SDS011;35290;39.550;8.786;2022-10-16T12:23:02;4.22;;;1.08;;
49416;SDS011;35290;39.550;8.786;2022-10-16T12:25:33;3.67;;;1.20;;
49416;SDS011;35290;39.550;8.786;2022-10-16T12:28:19;2.88;;;0.95;;
49416;SDS011;35290;39.550;8.786;2022-10-16T12:30:53;5.70;;;1.40;;
49416;SDS011;35290;39.550;8.786;2022-10-16T12:33:24;3.42;;;0.90;;
49416;SDS011;35290;39.550;8.786;2022-10-16T12:35:51;3.80;;;0.90;;
49416;SDS011;35290;39.550;8.786;2022-10-16T12:38:21;4.97;;;1.10;;
49416;SDS011;35290;39.550;8.786;2022-10-16T12:40:56;3.70;;;1.02;;
49416;SDS011;35290;39.550;8.786;2022-10-16T12:43:43;3.63;;;0.90;;
49416;SDS011;35290;39.550;8.786;2022-10-16T12:48:38;2.50;;;0.90;;
49416;SDS011;35290;39.550;8.786;2022-10-16T12:53:38;6.55;;;1.00;;
49416;SDS011;35290;39.550;8.786;2022-10-16T13:01:35;4.65;;;1.20;;
49416;SDS011;35290;39.550;8.786;2022-10-16T13:06:54;3.95;;;1.13;;
49416;SDS011;35290;39.550;8.786;2022-10-16T13:10:01;4.07;;;1.30;;
49416;SDS011;35290;39.550;8.786;2022-10-16T13:20:24;4.50;;;1.48;;
49416;SDS011;35290;39.550;8.786;2022-10-16T13:28:33;2.83;;;1.25;;
49416;SDS011;35290;39.550;8.786;2022-10-16T13:31:00;3.38;;;1.10;;
49416;SDS011;35290;39.550;8.786;2022-10-16T13:33:42;3.33;;;1.05;;
49416;SDS011;35290;39.550;8.786;2022-10-16T13:37:15;6.15;;;1.10;;
49416;SDS011;35290;39.550;8.786;2022-10-16T13:39:13;2.35;;;1.00;;
49416;SDS011;35290;39.550;8.786;2022-10-16T13:41:42;5.65;;;1.60;;
49416;SDS011;35290;39.550;8.786;2022-10-16T13:44:13;3.75;;;1.10;;
49416;SDS011;35290;39.550;8.786;2022-10-16T13:46:41;6.20;;;1.35;;
49416;SDS011;35290;39.550;8.786;2022-10-16T13:49:39;5.55;;;1.40;;
49416;SDS011;35290;39.550;8.786;2022-10-16T13:54:25;3.08;;;1.02;;
49416;SDS011;35290;39.550;8.786;2022-10-16T13:56:51;5.90;;;1.60;;
49416;SDS011;35290;39.550;8.786;2022-10-16T13:59:26;6.60;;;1.30;;
49416;SDS011;35290;39.550;8.786;2022-10-16T14:01:58;7.32;;;1.60;;
49416;SDS011;35290;39.550;8.786;2022-10-16T14:04:25;7.63;;;1.40;;
49416;SDS011;35290;39.550;8.786;2022-10-16T14:06:54;4.43;;;1.48;;
49416;SDS011;35290;39.550;8.786;2022-10-16T14:09:24;4.10;;;1.50;;
49416;SDS011;35290;39.550;8.786;2022-10-16T14:11:53;3.40;;;1.30;;
49416;SDS011;35290;39.550;8.786;2022-10-16T14:14:20;4.65;;;1.38;;
49416;SDS011;35290;39.550;8.786;2022-10-16T14:16:46;5.50;;;1.50;;
49416;SDS011;35290;39.550;8.786;2022-10-16T14:19:20;5.22;;;1.33;;
49416;SDS011;35290;39.550;8.786;2022-10-16T14:21:48;4.60;;;1.40;;
49416;SDS011;35290;39.550;8.786;2022-10-16T14:24:26;5.57;;;1.17;;
49416;SDS011;35290;39.550;8.786;2022-10-16T14:26:57;5.60;;;1.45;;
49416;SDS011;35290;39.550;8.786;2022-10-16T14:29:24;4.13;;;1.20;;
49416;SDS011;35290;39.550;8.786;2022-10-16T14:31:54;3.20;;;1.20;;
49416;SDS011;35290;39.550;8.786;2022-10-16T14:34:24;4.20;;;1.20;;
49416;SDS011;35290;39.550;8.786;2022-10-16T14:37:01;5.85;;;1.50;;
49416;SDS011;35290;39.550;8.786;2022-10-16T14:39:52;6.80;;;1.70;;
49416;SDS011;35290;39.550;8.786;2022-10-16T14:42:18;3.55;;;1.10;;
49416;SDS011;35290;39.550;8.786;2022-10-16T14:44:46;2.78;;;1.25;;
49416;SDS011;35290;39.550;8.786;2022-10-16T14:47:13;5.03;;;1.50;;
49416;SDS011;35290;39.550;8.786;2022-10-16T14:49:39;3.42;;;1.33;;
49416;SDS011;35290;39.550;8.786;2022-10-16T14:52:10;5.63;;;1.55;;
49416;SDS011;35290;39.550;8.786;2022-10-16T14:54:36;6.45;;;1.38;;
49416;SDS011;35290;39.550;8.786;2022-10-16T14:57:02;2.42;;;1.00;;
49416;SDS011;35290;39.550;8.786;2022-10-16T14:59:49;5.13;;;1.40;;
49416;SDS011;35290;39.550;8.786;2022-10-16T15:04:45;4.07;;;1.35;;
49416;SDS011;35290;39.550;8.786;2022-10-16T15:07:11;8.50;;;2.15;;
49416;SDS011;35290;39.550;8.786;2022-10-16T15:09:40;6.38;;;1.30;;
49416;SDS011;35290;39.550;8.786;2022-10-16T15:12:06;4.80;;;1.23;;
49416;SDS011;35290;39.550;8.786;2022-10-16T15:14:31;4.97;;;1.35;;
49416;SDS011;35290;39.550;8.786;2022-10-16T15:16:57;5.25;;;1.13;;
49416;SDS011;35290;39.550;8.786;2022-10-16T15:19:23;4.65;;;1.40;;
49416;SDS011;35290;39.550;8.786;2022-10-16T15:21:49;4.85;;;1.17;;
49416;SDS011;35290;39.550;8.786;2022-10-16T15:24:15;4.10;;;1.00;;
49416;SDS011;35290;39.550;8.786;2022-10-16T15:26:40;2.65;;;1.00;;
49416;SDS011;35290;39.550;8.786;2022-10-16T15:29:06;5.10;;;1.00;;
49416;SDS011;35290;39.550;8.786;2022-10-16T15:31:32;6.85;;;1.40;;
49416;SDS011;35290;39.550;8.786;2022-10-16T15:33:58;4.70;;;1.10;;
49416;SDS011;35290;39.550;8.786;2022-10-16T15:36:29;4.60;;;1.15;;
49416;SDS011;35290;39.550;8.786;2022-10-16T15:38:58;4.78;;;1.08;;
49416;SDS011;35290;39.550;8.786;2022-10-16T15:41:24;4.95;;;1.00;;
49416;SDS011;35290;39.550;8.786;2022-10-16T15:43:50;4.03;;;0.80;;
49416;SDS011;35290;39.550;8.786;2022-10-16T15:46:20;8.73;;;0.95;;
49416;SDS011;35290;39.550;8.786;2022-10-16T15:48:50;9.15;;;1.27;;
49416;SDS011;35290;39.550;8.786;2022-10-16T15:51:16;5.90;;;1.13;;
49416;SDS011;35290;39.550;8.786;2022-10-16T15:53:42;4.63;;;1.00;;
49416;SDS011;35290;39.550;8.786;2022-10-16T15:56:11;7.45;;;1.40;;
49416;SDS011;35290;39.550;8.786;2022-10-16T15:58:38;7.72;;;1.30;;
49416;SDS011;35290;39.550;8.786;2022-10-16T16:01:04;7.20;;;1.40;;
49416;SDS011;35290;39.550;8.786;2022-10-16T16:03:30;6.10;;;1.17;;
49416;SDS011;35290;39.550;8.786;2022-10-16T16:05:57;7.45;;;1.50;;
49416;SDS011;35290;39.550;8.786;2022-10-16T16:08:23;7.78;;;1.50;;
49416;SDS011;35290;39.550;8.786;2022-10-16T16:10:58;5.10;;;1.40;;
49416;SDS011;35290;39.550;8.786;2022-10-16T16:13:24;8.23;;;1.05;;
49416;SDS011;35290;39.550;8.786;2022-10-16T16:15:50;3.72;;;1.10;;
49416;SDS011;35290;39.550;8.786;2022-10-16T16:18:15;7.88;;;1.15;;
49416;SDS011;35290;39.550;8.786;2022-10-16T16:20:41;4.95;;;1.35;;
49416;SDS011;35290;39.550;8.786;2022-10-16T16:23:06;6.10;;;1.08;;
49416;SDS011;35290;39.550;8.786;2022-10-16T16:25:32;8.73;;;1.20;;
49416;SDS011;35290;39.550;8.786;2022-10-16T16:27:57;7.13;;;1.40;;
49416;SDS011;35290;39.550;8.786;2022-10-16T16:30:23;6.07;;;1.17;;
49416;SDS011;35290;39.550;8.786;2022-10-16T16:32:48;2.70;;;1.08;;
49416;SDS011;35290;39.550;8.786;2022-10-16T16:35:14;7.20;;;1.25;;
49416;SDS011;35290;39.550;8.786;2022-10-16T16:37:39;6.40;;;1.33;;
49416;SDS011;35290;39.550;8.786;2022-10-16T16:40:05;8.68;;;1.45;;
49416;SDS011;35290;39.550;8.786;2022-10-16T16:42:30;5.60;;;1.20;;
49416;SDS011;35290;39.550;8.786;2022-10-16T16:44:56;8.90;;;1.77;;
49416;SDS011;35290;39.550;8.786;2022-10-16T16:47:21;9.30;;;1.58;;
49416;SDS011;35290;39.550;8.786;2022-10-16T16:49:47;8.85;;;1.70;;
49416;SDS011;35290;39.550;8.786;2022-10-16T16:52:13;6.22;;;1.40;;
49416;SDS011;35290;39.550;8.786;2022-10-16T16:54:39;7.85;;;1.45;;
49416;SDS011;35290;39.550;8.786;2022-10-16T16:57:04;10.07;;;1.55;;
49416;SDS011;35290;39.550;8.786;2022-10-16T16:59:30;5.65;;;1.65;;
49416;SDS011;35290;39.550;8.786;2022-10-16T17:01:58;7.15;;;1.60;;